sensor_id;sensor_type;location;lat;lon;timestamp;temperature;humidity
43641;DHT22;72791;52.546;13.570;2023-12-20T00:01:55;6.70;99.90
43641;DHT22;72791;52.546;13.570;2023-12-20T00:04:21;6.70;99.90
43641;DHT22;72791;52.546;13.570;2023-12-20T00:06:47;6.70;99.90
43641;DHT22;72791;52.546;13.570;2023-12-20T00:09:12;6.70;99.90
43641;DHT22;72791;52.546;13.570;2023-12-20T00:11:38;6.70;99.90
43641;DHT22;72791;52.546;13.570;2023-12-20T00:14:04;6.70;99.90
43641;DHT22;72791;52.546;13.570;2023-12-20T00:16:29;6.70;99.90
43641;DHT22;72791;52.546;13.570;2023-12-20T00:18:57;6.70;99.90
43641;DHT22;72791;52.546;13.570;2023-12-20T00:21:22;6.70;99.90
43641;DHT22;72791;52.546;13.570;2023-12-20T00:23:49;6.70;99.90
43641;DHT22;72791;52.546;13.570;2023-12-20T00:26:15;6.70;99.90
43641;DHT22;72791;52.546;13.570;2023-12-20T00:28:41;6.60;99.90
43641;DHT22;72791;52.546;13.570;2023-12-20T00:31:08;6.70;99.90
43641;DHT22;72791;52.546;13.570;2023-12-20T00:33:33;6.70;99.90
43641;DHT22;72791;52.546;13.570;2023-12-20T00:36:00;6.70;99.90
43641;DHT22;72791;52.546;13.570;2023-12-20T00:38:25;6.70;99.90
43641;DHT22;72791;52.546;13.570;2023-12-20T00:40:51;6.60;99.90
43641;DHT22;72791;52.546;13.570;2023-12-20T00:43:16;6.70;99.90
43641;DHT22;72791;52.546;13.570;2023-12-20T00:45:42;6.70;99.90
43641;DHT22;72791;52.546;13.570;2023-12-20T00:48:08;6.70;99.90
43641;DHT22;72791;52.546;13.570;2023-12-20T00:50:35;6.60;99.90
43641;DHT22;72791;52.546;13.570;2023-12-20T00:53:00;6.60;99.90
43641;DHT22;72791;52.546;13.570;2023-12-20T00:55:26;6.70;99.90
43641;DHT22;72791;52.546;13.570;2023-12-20T00:57:52;6.60;99.90
43641;DHT22;72791;52.546;13.570;2023-12-20T01:00:18;6.70;99.90
43641;DHT22;72791;52.546;13.570;2023-12-20T01:02:44;6.70;99.90
43641;DHT22;72791;52.546;13.570;2023-12-20T01:05:12;6.70;99.90
43641;DHT22;72791;52.546;13.570;2023-12-20T01:07:38;6.70;99.90
43641;DHT22;72791;52.546;13.570;2023-12-20T01:10:04;6.70;99.90
43641;DHT22;72791;52.546;13.570;2023-12-20T01:12:31;6.70;99.90
43641;DHT22;72791;52.546;13.570;2023-12-20T01:14:56;6.70;99.90
43641;DHT22;72791;52.546;13.570;2023-12-20T01:17:24;6.70;99.90
43641;DHT22;72791;52.546;13.570;2023-12-20T01:19:49;6.70;99.90
43641;DHT22;72791;52.546;13.570;2023-12-20T01:22:15;6.70;99.90
43641;DHT22;72791;52.546;13.570;2023-12-20T01:24:41;6.70;99.90
43641;DHT22;72791;52.546;13.570;2023-12-20T01:27:06;6.70;99.90
43641;DHT22;72791;52.546;13.570;2023-12-20T01:29:32;6.70;99.90
43641;DHT22;72791;52.546;13.570;2023-12-20T01:31:58;6.70;99.90
43641;DHT22;72791;52.546;13.570;2023-12-20T01:34:23;6.70;99.90
43641;DHT22;72791;52.546;13.570;2023-12-20T01:36:49;6.70;99.90
43641;DHT22;72791;52.546;13.570;2023-12-20T01:39:15;6.70;99.90
43641;DHT22;72791;52.546;13.570;2023-12-20T01:41:40;6.70;99.90
43641;DHT22;72791;52.546;13.570;2023-12-20T01:44:06;6.70;99.90
43641;DHT22;72791;52.546;13.570;2023-12-20T01:46:32;6.70;99.90
43641;DHT22;72791;52.546;13.570;2023-12-20T01:48:58;6.70;99.90
43641;DHT22;72791;52.546;13.570;2023-12-20T01:51:25;6.70;99.90
43641;DHT22;72791;52.546;13.570;2023-12-20T01:53:53;6.70;99.90
43641;DHT22;72791;52.546;13.570;2023-12-20T01:56:20;6.60;99.90
43641;DHT22;72791;52.546;13.570;2023-12-20T01:58:47;6.60;99.90
43641;DHT22;72791;52.546;13.570;2023-12-20T02:01:13;6.60;99.90
43641;DHT22;72791;52.546;13.570;2023-12-20T02:03:43;6.60;99.90
43641;DHT22;72791;52.546;13.570;2023-12-20T02:06:09;6.60;99.90
43641;DHT22;72791;52.546;13.570;2023-12-20T02:08:35;6.60;99.90
43641;DHT22;72791;52.546;13.570;2023-12-20T02:11:01;6.60;99.90
43641;DHT22;72791;52.546;13.570;2023-12-20T02:13:27;6.50;99.90
43641;DHT22;72791;52.546;13.570;2023-12-20T02:15:54;6.50;99.90
43641;DHT22;72791;52.546;13.570;2023-12-20T02:18:20;6.50;99.90
43641;DHT22;72791;52.546;13.570;2023-12-20T02:20:45;6.60;99.90
43641;DHT22;72791;52.546;13.570;2023-12-20T02:23:11;6.50;99.90
43641;DHT22;72791;52.546;13.570;2023-12-20T02:25:37;6.50;99.90
43641;DHT22;72791;52.546;13.570;2023-12-20T02:28:04;6.50;99.90
43641;DHT22;72791;52.546;13.570;2023-12-20T02:30:35;6.50;99.90
43641;DHT22;72791;52.546;13.570;2023-12-20T02:33:01;6.50;99.90
43641;DHT22;72791;52.546;13.570;2023-12-20T02:35:30;6.50;99.90
43641;DHT22;72791;52.546;13.570;2023-12-20T02:37:56;6.50;99.90
43641;DHT22;72791;52.546;13.570;2023-12-20T02:40:21;6.50;99.90
43641;DHT22;72791;52.546;13.570;2023-12-20T02:42:47;6.50;99.90
43641;DHT22;72791;52.546;13.570;2023-12-20T02:45:14;6.40;99.90
43641;DHT22;72791;52.546;13.570;2023-12-20T02:47:41;6.40;99.90
43641;DHT22;72791;52.546;13.570;2023-12-20T02:50:08;6.40;99.90
43641;DHT22;72791;52.546;13.570;2023-12-20T02:52:36;6.40;99.90
43641;DHT22;72791;52.546;13.570;2023-12-20T02:55:02;6.40;99.90
43641;DHT22;72791;52.546;13.570;2023-12-20T02:57:28;6.40;99.90
43641;DHT22;72791;52.546;13.570;2023-12-20T02:59:53;6.40;99.90
43641;DHT22;72791;52.546;13.570;2023-12-20T03:02:19;6.40;99.90
43641;DHT22;72791;52.546;13.570;2023-12-20T03:04:45;6.30;99.90
43641;DHT22;72791;52.546;13.570;2023-12-20T03:07:12;6.30;99.90
43641;DHT22;72791;52.546;13.570;2023-12-20T03:09:38;6.30;99.90
43641;DHT22;72791;52.546;13.570;2023-12-20T03:12:04;6.30;99.90
43641;DHT22;72791;52.546;13.570;2023-12-20T03:14:29;6.40;99.90
43641;DHT22;72791;52.546;13.570;2023-12-20T03:16:55;6.30;99.90
43641;DHT22;72791;52.546;13.570;2023-12-20T03:19:22;6.40;99.90
43641;DHT22;72791;52.546;13.570;2023-12-20T03:21:50;6.40;99.90
43641;DHT22;72791;52.546;13.570;2023-12-20T03:24:18;6.30;99.90
43641;DHT22;72791;52.546;13.570;2023-12-20T03:26:44;6.30;99.90
43641;DHT22;72791;52.546;13.570;2023-12-20T03:29:09;6.30;99.90
43641;DHT22;72791;52.546;13.570;2023-12-20T03:31:35;6.30;99.90
43641;DHT22;72791;52.546;13.570;2023-12-20T03:34:01;6.20;99.90
43641;DHT22;72791;52.546;13.570;2023-12-20T03:36:26;6.20;99.90
43641;DHT22;72791;52.546;13.570;2023-12-20T03:38:52;6.20;99.90
43641;DHT22;72791;52.546;13.570;2023-12-20T03:41:17;6.20;99.90
43641;DHT22;72791;52.546;13.570;2023-12-20T03:43:44;6.20;99.90
43641;DHT22;72791;52.546;13.570;2023-12-20T03:46:09;6.10;99.90
43641;DHT22;72791;52.546;13.570;2023-12-20T03:48:36;6.10;99.90
43641;DHT22;72791;52.546;13.570;2023-12-20T03:51:02;6.10;99.90
43641;DHT22;72791;52.546;13.570;2023-12-20T03:53:28;6.00;99.90
43641;DHT22;72791;52.546;13.570;2023-12-20T03:55:53;5.90;99.90
43641;DHT22;72791;52.546;13.570;2023-12-20T03:58:19;5.80;99.90
43641;DHT22;72791;52.546;13.570;2023-12-20T04:00:45;5.80;99.90
43641;DHT22;72791;52.546;13.570;2023-12-20T04:03:10;5.80;99.90
43641;DHT22;72791;52.546;13.570;2023-12-20T04:05:41;5.70;99.90
43641;DHT22;72791;52.546;13.570;2023-12-20T04:08:07;5.80;99.90
43641;DHT22;72791;52.546;13.570;2023-12-20T04:10:33;5.80;99.90
43641;DHT22;72791;52.546;13.570;2023-12-20T04:13:01;5.80;99.90
43641;DHT22;72791;52.546;13.570;2023-12-20T04:15:26;5.90;99.90
43641;DHT22;72791;52.546;13.570;2023-12-20T04:17:52;5.90;99.90
43641;DHT22;72791;52.546;13.570;2023-12-20T04:20:18;6.00;99.90
43641;DHT22;72791;52.546;13.570;2023-12-20T04:22:46;5.90;99.90
43641;DHT22;72791;52.546;13.570;2023-12-20T04:25:14;5.90;99.90
43641;DHT22;72791;52.546;13.570;2023-12-20T04:27:40;5.80;99.90
43641;DHT22;72791;52.546;13.570;2023-12-20T04:30:07;5.80;99.90
43641;DHT22;72791;52.546;13.570;2023-12-20T04:32:33;5.80;99.90
43641;DHT22;72791;52.546;13.570;2023-12-20T04:35:00;5.70;99.90
43641;DHT22;72791;52.546;13.570;2023-12-20T04:37:30;5.70;99.90
43641;DHT22;72791;52.546;13.570;2023-12-20T04:39:55;5.60;99.90
43641;DHT22;72791;52.546;13.570;2023-12-20T04:42:22;5.60;99.90
43641;DHT22;72791;52.546;13.570;2023-12-20T04:44:49;5.60;99.90
43641;DHT22;72791;52.546;13.570;2023-12-20T04:47:17;5.60;99.90
43641;DHT22;72791;52.546;13.570;2023-12-20T04:49:44;5.50;99.90
43641;DHT22;72791;52.546;13.570;2023-12-20T04:52:09;5.60;99.90
43641;DHT22;72791;52.546;13.570;2023-12-20T04:54:36;5.60;99.90
43641;DHT22;72791;52.546;13.570;2023-12-20T04:57:02;5.50;99.90
43641;DHT22;72791;52.546;13.570;2023-12-20T04:59:28;5.40;99.90
43641;DHT22;72791;52.546;13.570;2023-12-20T05:01:54;5.30;99.90
43641;DHT22;72791;52.546;13.570;2023-12-20T05:04:21;5.20;99.90
43641;DHT22;72791;52.546;13.570;2023-12-20T05:06:47;5.10;99.90
43641;DHT22;72791;52.546;13.570;2023-12-20T05:09:15;5.00;99.90
43641;DHT22;72791;52.546;13.570;2023-12-20T05:11:42;5.00;99.90
43641;DHT22;72791;52.546;13.570;2023-12-20T05:14:08;5.00;99.90
43641;DHT22;72791;52.546;13.570;2023-12-20T05:16:36;5.10;99.90
43641;DHT22;72791;52.546;13.570;2023-12-20T05:19:02;5.10;99.90
43641;DHT22;72791;52.546;13.570;2023-12-20T05:21:32;5.10;99.90
43641;DHT22;72791;52.546;13.570;2023-12-20T05:23:59;5.30;99.90
43641;DHT22;72791;52.546;13.570;2023-12-20T05:26:26;5.30;99.90
43641;DHT22;72791;52.546;13.570;2023-12-20T05:28:51;5.40;99.90
43641;DHT22;72791;52.546;13.570;2023-12-20T05:31:18;5.40;99.90
43641;DHT22;72791;52.546;13.570;2023-12-20T05:33:43;5.40;99.90
43641;DHT22;72791;52.546;13.570;2023-12-20T05:36:09;5.30;99.90
43641;DHT22;72791;52.546;13.570;2023-12-20T05:38:37;5.20;99.90
43641;DHT22;72791;52.546;13.570;2023-12-20T05:41:02;5.20;99.90
43641;DHT22;72791;52.546;13.570;2023-12-20T05:43:29;5.10;99.90
43641;DHT22;72791;52.546;13.570;2023-12-20T05:45:55;5.00;99.90
43641;DHT22;72791;52.546;13.570;2023-12-20T05:48:21;5.00;99.90
43641;DHT22;72791;52.546;13.570;2023-12-20T05:50:47;4.90;99.90
43641;DHT22;72791;52.546;13.570;2023-12-20T05:53:15;4.90;99.90
43641;DHT22;72791;52.546;13.570;2023-12-20T05:55:41;4.80;99.90
43641;DHT22;72791;52.546;13.570;2023-12-20T05:58:07;4.70;99.90
43641;DHT22;72791;52.546;13.570;2023-12-20T06:00:32;4.60;99.90
43641;DHT22;72791;52.546;13.570;2023-12-20T06:02:58;4.60;99.90
43641;DHT22;72791;52.546;13.570;2023-12-20T06:05:25;4.50;99.90
43641;DHT22;72791;52.546;13.570;2023-12-20T06:07:52;4.50;99.90
43641;DHT22;72791;52.546;13.570;2023-12-20T06:10:18;4.40;99.90
43641;DHT22;72791;52.546;13.570;2023-12-20T06:12:45;4.40;99.90
43641;DHT22;72791;52.546;13.570;2023-12-20T06:15:14;4.50;99.90
43641;DHT22;72791;52.546;13.570;2023-12-20T06:17:40;4.60;99.90
43641;DHT22;72791;52.546;13.570;2023-12-20T06:20:07;4.60;99.90
43641;DHT22;72791;52.546;13.570;2023-12-20T06:22:35;4.70;99.90
43641;DHT22;72791;52.546;13.570;2023-12-20T06:25:02;4.80;99.90
43641;DHT22;72791;52.546;13.570;2023-12-20T06:27:29;4.90;99.90
43641;DHT22;72791;52.546;13.570;2023-12-20T06:29:56;4.90;99.90
43641;DHT22;72791;52.546;13.570;2023-12-20T06:32:23;4.90;99.90
43641;DHT22;72791;52.546;13.570;2023-12-20T06:46:55;4.80;99.90
43641;DHT22;72791;52.546;13.570;2023-12-20T06:49:22;4.90;99.90
43641;DHT22;72791;52.546;13.570;2023-12-20T06:51:48;5.00;99.90
43641;DHT22;72791;52.546;13.570;2023-12-20T06:54:13;5.00;99.90
43641;DHT22;72791;52.546;13.570;2023-12-20T06:56:39;5.00;99.90
43641;DHT22;72791;52.546;13.570;2023-12-20T06:59:05;5.00;99.90
43641;DHT22;72791;52.546;13.570;2023-12-20T07:01:32;4.90;99.90
43641;DHT22;72791;52.546;13.570;2023-12-20T07:03:58;5.00;99.90
43641;DHT22;72791;52.546;13.570;2023-12-20T07:06:24;5.00;99.90
43641;DHT22;72791;52.546;13.570;2023-12-20T07:08:52;5.00;99.90
43641;DHT22;72791;52.546;13.570;2023-12-20T07:11:19;5.00;99.90
43641;DHT22;72791;52.546;13.570;2023-12-20T07:13:45;5.10;99.90
43641;DHT22;72791;52.546;13.570;2023-12-20T07:16:12;5.10;99.90
43641;DHT22;72791;52.546;13.570;2023-12-20T07:18:39;5.10;99.90
43641;DHT22;72791;52.546;13.570;2023-12-20T07:21:04;5.10;99.90
43641;DHT22;72791;52.546;13.570;2023-12-20T07:23:30;5.20;99.90
43641;DHT22;72791;52.546;13.570;2023-12-20T07:25:56;5.20;99.90
43641;DHT22;72791;52.546;13.570;2023-12-20T07:28:21;5.30;99.90
43641;DHT22;72791;52.546;13.570;2023-12-20T07:30:48;5.20;99.90
43641;DHT22;72791;52.546;13.570;2023-12-20T07:33:14;5.30;99.90
43641;DHT22;72791;52.546;13.570;2023-12-20T07:35:44;5.30;99.90
43641;DHT22;72791;52.546;13.570;2023-12-20T07:38:11;5.30;99.90
43641;DHT22;72791;52.546;13.570;2023-12-20T07:40:37;5.30;99.90
43641;DHT22;72791;52.546;13.570;2023-12-20T07:43:04;5.30;99.90
43641;DHT22;72791;52.546;13.570;2023-12-20T07:45:31;5.40;99.90
43641;DHT22;72791;52.546;13.570;2023-12-20T07:47:58;5.40;99.90
43641;DHT22;72791;52.546;13.570;2023-12-20T07:50:25;5.40;99.90
43641;DHT22;72791;52.546;13.570;2023-12-20T07:52:52;5.40;99.90
43641;DHT22;72791;52.546;13.570;2023-12-20T07:55:18;5.50;99.90
43641;DHT22;72791;52.546;13.570;2023-12-20T07:57:44;5.50;99.90
43641;DHT22;72791;52.546;13.570;2023-12-20T08:00:10;5.50;99.90
43641;DHT22;72791;52.546;13.570;2023-12-20T08:02:36;5.50;99.90
43641;DHT22;72791;52.546;13.570;2023-12-20T08:05:02;5.50;99.90
43641;DHT22;72791;52.546;13.570;2023-12-20T08:07:27;5.50;99.90
43641;DHT22;72791;52.546;13.570;2023-12-20T08:09:53;5.60;99.90
43641;DHT22;72791;52.546;13.570;2023-12-20T08:12:21;5.60;99.90
43641;DHT22;72791;52.546;13.570;2023-12-20T08:14:48;5.60;99.90
43641;DHT22;72791;52.546;13.570;2023-12-20T08:17:16;5.60;99.90
43641;DHT22;72791;52.546;13.570;2023-12-20T08:19:44;5.60;99.90
43641;DHT22;72791;52.546;13.570;2023-12-20T08:22:11;5.70;99.90
43641;DHT22;72791;52.546;13.570;2023-12-20T08:24:37;5.70;99.90
43641;DHT22;72791;52.546;13.570;2023-12-20T08:27:04;5.70;99.90
43641;DHT22;72791;52.546;13.570;2023-12-20T08:29:32;5.70;99.90
43641;DHT22;72791;52.546;13.570;2023-12-20T08:31:59;5.70;99.90
43641;DHT22;72791;52.546;13.570;2023-12-20T08:34:25;5.70;99.90
43641;DHT22;72791;52.546;13.570;2023-12-20T08:36:51;5.70;99.90
43641;DHT22;72791;52.546;13.570;2023-12-20T08:39:17;5.80;99.90
43641;DHT22;72791;52.546;13.570;2023-12-20T08:41:43;5.80;99.90
43641;DHT22;72791;52.546;13.570;2023-12-20T08:44:09;5.70;99.90
43641;DHT22;72791;52.546;13.570;2023-12-20T08:46:35;5.70;99.90
43641;DHT22;72791;52.546;13.570;2023-12-20T08:49:02;5.80;99.90
43641;DHT22;72791;52.546;13.570;2023-12-20T08:51:27;5.80;99.90
43641;DHT22;72791;52.546;13.570;2023-12-20T08:53:54;5.80;99.90
43641;DHT22;72791;52.546;13.570;2023-12-20T08:56:20;5.90;99.90
43641;DHT22;72791;52.546;13.570;2023-12-20T08:58:46;6.00;99.90
43641;DHT22;72791;52.546;13.570;2023-12-20T09:01:12;6.10;99.90
43641;DHT22;72791;52.546;13.570;2023-12-20T09:03:39;6.20;99.90
43641;DHT22;72791;52.546;13.570;2023-12-20T09:06:05;6.10;99.90
43641;DHT22;72791;52.546;13.570;2023-12-20T09:08:31;6.10;99.90
43641;DHT22;72791;52.546;13.570;2023-12-20T09:10:57;6.20;99.90
43641;DHT22;72791;52.546;13.570;2023-12-20T09:13:23;6.20;99.90
43641;DHT22;72791;52.546;13.570;2023-12-20T09:15:58;6.20;99.90
43641;DHT22;72791;52.546;13.570;2023-12-20T09:18:24;6.20;99.90
43641;DHT22;72791;52.546;13.570;2023-12-20T09:20:49;6.30;99.90
43641;DHT22;72791;52.546;13.570;2023-12-20T09:23:16;6.40;99.90
43641;DHT22;72791;52.546;13.570;2023-12-20T09:25:43;6.50;99.90
43641;DHT22;72791;52.546;13.570;2023-12-20T09:28:10;6.50;99.90
43641;DHT22;72791;52.546;13.570;2023-12-20T09:30:36;6.50;99.90
43641;DHT22;72791;52.546;13.570;2023-12-20T09:33:05;6.50;99.90
43641;DHT22;72791;52.546;13.570;2023-12-20T09:35:32;6.50;99.90
43641;DHT22;72791;52.546;13.570;2023-12-20T09:37:58;6.40;99.90
43641;DHT22;72791;52.546;13.570;2023-12-20T09:40:26;6.30;99.90
43641;DHT22;72791;52.546;13.570;2023-12-20T09:43:04;6.30;99.90
43641;DHT22;72791;52.546;13.570;2023-12-20T09:45:31;6.30;99.90
43641;DHT22;72791;52.546;13.570;2023-12-20T09:47:58;6.40;99.90
43641;DHT22;72791;52.546;13.570;2023-12-20T09:50:24;6.30;99.90
43641;DHT22;72791;52.546;13.570;2023-12-20T09:52:53;6.30;99.90
43641;DHT22;72791;52.546;13.570;2023-12-20T09:55:25;6.30;99.90
43641;DHT22;72791;52.546;13.570;2023-12-20T09:57:52;6.30;99.90
43641;DHT22;72791;52.546;13.570;2023-12-20T10:00:18;6.30;99.90
43641;DHT22;72791;52.546;13.570;2023-12-20T10:03:04;6.30;99.90
43641;DHT22;72791;52.546;13.570;2023-12-20T10:05:32;6.40;99.90
43641;DHT22;72791;52.546;13.570;2023-12-20T10:08:00;6.30;99.90
43641;DHT22;72791;52.546;13.570;2023-12-20T10:10:27;6.40;99.90
43641;DHT22;72791;52.546;13.570;2023-12-20T10:13:10;6.40;99.90
43641;DHT22;72791;52.546;13.570;2023-12-20T10:15:36;6.40;99.90
43641;DHT22;72791;52.546;13.570;2023-12-20T10:18:03;6.40;99.90
43641;DHT22;72791;52.546;13.570;2023-12-20T10:20:29;6.40;99.90
43641;DHT22;72791;52.546;13.570;2023-12-20T10:22:56;6.40;99.90
43641;DHT22;72791;52.546;13.570;2023-12-20T10:25:22;6.40;99.90
43641;DHT22;72791;52.546;13.570;2023-12-20T10:27:49;6.40;99.90
43641;DHT22;72791;52.546;13.570;2023-12-20T10:30:17;6.40;99.90
43641;DHT22;72791;52.546;13.570;2023-12-20T10:32:43;6.40;99.90
43641;DHT22;72791;52.546;13.570;2023-12-20T10:35:09;6.50;99.90
43641;DHT22;72791;52.546;13.570;2023-12-20T10:37:36;6.50;99.90
43641;DHT22;72791;52.546;13.570;2023-12-20T10:40:04;6.50;99.90
43641;DHT22;72791;52.546;13.570;2023-12-20T10:42:32;6.50;99.90
43641;DHT22;72791;52.546;13.570;2023-12-20T10:45:00;6.60;99.90
43641;DHT22;72791;52.546;13.570;2023-12-20T10:47:28;6.60;99.90
43641;DHT22;72791;52.546;13.570;2023-12-20T10:49:59;6.60;99.90
43641;DHT22;72791;52.546;13.570;2023-12-20T10:52:25;6.70;99.90
43641;DHT22;72791;52.546;13.570;2023-12-20T10:54:53;6.70;99.90
43641;DHT22;72791;52.546;13.570;2023-12-20T10:57:22;6.80;99.90
43641;DHT22;72791;52.546;13.570;2023-12-20T10:59:54;6.90;99.90
43641;DHT22;72791;52.546;13.570;2023-12-20T11:02:20;7.00;99.90
43641;DHT22;72791;52.546;13.570;2023-12-20T11:04:55;7.00;99.90
43641;DHT22;72791;52.546;13.570;2023-12-20T11:07:44;6.90;99.90
43641;DHT22;72791;52.546;13.570;2023-12-20T11:10:20;6.90;99.90
43641;DHT22;72791;52.546;13.570;2023-12-20T11:15:24;6.80;99.90
43641;DHT22;72791;52.546;13.570;2023-12-20T11:17:56;6.80;99.90
43641;DHT22;72791;52.546;13.570;2023-12-20T11:20:23;6.80;99.90
43641;DHT22;72791;52.546;13.570;2023-12-20T11:22:54;6.90;99.90
43641;DHT22;72791;52.546;13.570;2023-12-20T11:25:21;7.00;99.90
43641;DHT22;72791;52.546;13.570;2023-12-20T11:28:10;7.00;99.90
43641;DHT22;72791;52.546;13.570;2023-12-20T11:30:51;6.90;99.90
43641;DHT22;72791;52.546;13.570;2023-12-20T11:33:24;6.90;99.90
43641;DHT22;72791;52.546;13.570;2023-12-20T11:35:50;6.90;99.90
43641;DHT22;72791;52.546;13.570;2023-12-20T11:38:19;6.80;99.90
43641;DHT22;72791;52.546;13.570;2023-12-20T11:40:48;6.80;99.90
43641;DHT22;72791;52.546;13.570;2023-12-20T11:43:53;6.70;99.90
43641;DHT22;72791;52.546;13.570;2023-12-20T11:46:20;6.70;99.90
43641;DHT22;72791;52.546;13.570;2023-12-20T11:48:46;6.70;99.90
43641;DHT22;72791;52.546;13.570;2023-12-20T11:51:13;6.60;99.90
43641;DHT22;72791;52.546;13.570;2023-12-20T11:53:41;6.60;99.90
43641;DHT22;72791;52.546;13.570;2023-12-20T11:56:09;6.60;99.90
43641;DHT22;72791;52.546;13.570;2023-12-20T11:58:36;6.60;99.90
43641;DHT22;72791;52.546;13.570;2023-12-20T12:01:03;6.70;99.90
43641;DHT22;72791;52.546;13.570;2023-12-20T12:03:30;7.00;99.90
43641;DHT22;72791;52.546;13.570;2023-12-20T12:05:56;7.10;99.90
43641;DHT22;72791;52.546;13.570;2023-12-20T12:08:22;7.10;99.90
43641;DHT22;72791;52.546;13.570;2023-12-20T12:10:48;7.00;99.90
43641;DHT22;72791;52.546;13.570;2023-12-20T12:13:13;7.10;99.90
43641;DHT22;72791;52.546;13.570;2023-12-20T12:15:42;7.10;99.90
43641;DHT22;72791;52.546;13.570;2023-12-20T12:18:08;7.10;99.90
43641;DHT22;72791;52.546;13.570;2023-12-20T12:20:35;7.10;99.90
43641;DHT22;72791;52.546;13.570;2023-12-20T12:23:05;7.10;99.90
43641;DHT22;72791;52.546;13.570;2023-12-20T12:25:32;7.00;99.90
43641;DHT22;72791;52.546;13.570;2023-12-20T12:28:01;6.90;99.90
43641;DHT22;72791;52.546;13.570;2023-12-20T12:30:27;6.90;99.90
43641;DHT22;72791;52.546;13.570;2023-12-20T12:32:53;6.90;99.90
43641;DHT22;72791;52.546;13.570;2023-12-20T12:35:19;6.90;99.90
43641;DHT22;72791;52.546;13.570;2023-12-20T12:37:47;6.80;99.90
43641;DHT22;72791;52.546;13.570;2023-12-20T12:40:15;6.80;99.90
43641;DHT22;72791;52.546;13.570;2023-12-20T12:42:45;6.70;99.90
43641;DHT22;72791;52.546;13.570;2023-12-20T12:45:11;6.70;99.90
43641;DHT22;72791;52.546;13.570;2023-12-20T12:47:39;6.60;99.90
43641;DHT22;72791;52.546;13.570;2023-12-20T12:50:07;6.50;99.90
43641;DHT22;72791;52.546;13.570;2023-12-20T12:52:34;6.40;99.90
43641;DHT22;72791;52.546;13.570;2023-12-20T12:55:00;6.30;99.90
43641;DHT22;72791;52.546;13.570;2023-12-20T12:57:26;6.30;99.90
43641;DHT22;72791;52.546;13.570;2023-12-20T12:59:55;6.30;99.90
43641;DHT22;72791;52.546;13.570;2023-12-20T13:02:20;6.20;99.90
43641;DHT22;72791;52.546;13.570;2023-12-20T13:04:47;6.20;99.90
43641;DHT22;72791;52.546;13.570;2023-12-20T13:07:14;6.20;99.90
43641;DHT22;72791;52.546;13.570;2023-12-20T13:09:41;6.20;99.90
43641;DHT22;72791;52.546;13.570;2023-12-20T13:12:08;6.10;99.90
43641;DHT22;72791;52.546;13.570;2023-12-20T13:14:35;6.10;99.90
43641;DHT22;72791;52.546;13.570;2023-12-20T13:17:02;6.10;99.90
43641;DHT22;72791;52.546;13.570;2023-12-20T13:19:29;6.10;99.90
43641;DHT22;72791;52.546;13.570;2023-12-20T13:21:56;6.10;99.90
43641;DHT22;72791;52.546;13.570;2023-12-20T13:24:22;6.10;99.90
43641;DHT22;72791;52.546;13.570;2023-12-20T13:26:48;6.10;99.90
43641;DHT22;72791;52.546;13.570;2023-12-20T13:29:14;6.00;99.90
43641;DHT22;72791;52.546;13.570;2023-12-20T13:31:39;5.90;99.90
43641;DHT22;72791;52.546;13.570;2023-12-20T13:34:06;5.90;99.90
43641;DHT22;72791;52.546;13.570;2023-12-20T13:36:33;5.80;99.90
43641;DHT22;72791;52.546;13.570;2023-12-20T13:38:58;5.70;99.90
43641;DHT22;72791;52.546;13.570;2023-12-20T13:41:25;5.70;99.90
43641;DHT22;72791;52.546;13.570;2023-12-20T13:43:51;5.70;99.90
43641;DHT22;72791;52.546;13.570;2023-12-20T13:46:17;5.70;99.90
43641;DHT22;72791;52.546;13.570;2023-12-20T13:48:42;5.70;99.90
43641;DHT22;72791;52.546;13.570;2023-12-20T13:51:08;5.70;99.90
43641;DHT22;72791;52.546;13.570;2023-12-20T13:53:34;5.70;99.90
43641;DHT22;72791;52.546;13.570;2023-12-20T13:56:00;5.60;99.90
43641;DHT22;72791;52.546;13.570;2023-12-20T13:58:26;5.60;99.90
43641;DHT22;72791;52.546;13.570;2023-12-20T14:00:52;5.50;99.90
43641;DHT22;72791;52.546;13.570;2023-12-20T14:03:18;5.40;99.90
43641;DHT22;72791;52.546;13.570;2023-12-20T14:05:45;5.20;99.90
43641;DHT22;72791;52.546;13.570;2023-12-20T14:08:11;5.20;99.90
43641;DHT22;72791;52.546;13.570;2023-12-20T14:10:38;5.20;99.90
43641;DHT22;72791;52.546;13.570;2023-12-20T14:13:05;5.30;99.90
43641;DHT22;72791;52.546;13.570;2023-12-20T14:15:31;5.30;99.90
43641;DHT22;72791;52.546;13.570;2023-12-20T14:18:04;5.40;99.90
43641;DHT22;72791;52.546;13.570;2023-12-20T14:20:31;5.40;99.90
43641;DHT22;72791;52.546;13.570;2023-12-20T14:22:57;5.40;99.90
43641;DHT22;72791;52.546;13.570;2023-12-20T14:25:23;5.30;99.90
43641;DHT22;72791;52.546;13.570;2023-12-20T14:27:49;5.30;99.90
43641;DHT22;72791;52.546;13.570;2023-12-20T14:30:14;5.30;99.90
43641;DHT22;72791;52.546;13.570;2023-12-20T14:32:42;5.30;99.90
43641;DHT22;72791;52.546;13.570;2023-12-20T14:35:08;5.30;99.90
43641;DHT22;72791;52.546;13.570;2023-12-20T14:37:36;5.40;99.90
43641;DHT22;72791;52.546;13.570;2023-12-20T14:40:10;5.50;99.90
43641;DHT22;72791;52.546;13.570;2023-12-20T14:42:36;5.50;99.90
43641;DHT22;72791;52.546;13.570;2023-12-20T14:45:06;5.50;99.90
43641;DHT22;72791;52.546;13.570;2023-12-20T14:47:33;5.50;99.90
43641;DHT22;72791;52.546;13.570;2023-12-20T14:49:59;5.50;99.90
43641;DHT22;72791;52.546;13.570;2023-12-20T14:52:24;5.40;99.90
43641;DHT22;72791;52.546;13.570;2023-12-20T14:54:50;5.30;99.90
43641;DHT22;72791;52.546;13.570;2023-12-20T14:57:16;5.30;99.90
43641;DHT22;72791;52.546;13.570;2023-12-20T14:59:43;5.60;99.90
43641;DHT22;72791;52.546;13.570;2023-12-20T15:04:36;5.40;99.90
43641;DHT22;72791;52.546;13.570;2023-12-20T15:07:02;5.40;99.90
43641;DHT22;72791;52.546;13.570;2023-12-20T15:24:09;5.40;99.90
43641;DHT22;72791;52.546;13.570;2023-12-20T15:26:42;5.40;99.90
43641;DHT22;72791;52.546;13.570;2023-12-20T15:29:09;7.30;99.90
43641;DHT22;72791;52.546;13.570;2023-12-20T15:31:36;5.10;99.90
43641;DHT22;72791;52.546;13.570;2023-12-20T15:34:03;5.50;99.90
43641;DHT22;72791;52.546;13.570;2023-12-20T15:38:55;5.30;99.90
43641;DHT22;72791;52.546;13.570;2023-12-20T15:41:22;5.40;99.90
43641;DHT22;72791;52.546;13.570;2023-12-20T15:46:15;5.30;99.90
43641;DHT22;72791;52.546;13.570;2023-12-20T15:48:41;5.20;99.90
43641;DHT22;72791;52.546;13.570;2023-12-20T15:51:10;5.10;99.90
43641;DHT22;72791;52.546;13.570;2023-12-20T15:53:42;5.10;99.90
43641;DHT22;72791;52.546;13.570;2023-12-20T15:56:08;5.00;99.90
43641;DHT22;72791;52.546;13.570;2023-12-20T15:58:34;4.90;99.90
43641;DHT22;72791;52.546;13.570;2023-12-20T16:00:59;4.80;99.90
43641;DHT22;72791;52.546;13.570;2023-12-20T16:03:26;4.70;99.90
43641;DHT22;72791;52.546;13.570;2023-12-20T16:05:54;4.60;99.90